Darstellungsparameter: Aktuell verwendete Einstellungen:
Skalierung der Graphiken ... ?
xyx+y,   Skalierungsfaktor:      Skalierung: Modus: x, Faktor: 1
Darstellungszeitraum ... ?
Vom - - bis: - -   Zeitraum: 01.11.2012 - 31.12.2012
Min/Max/Avg-Anzeige ... ?
Zeige MMA aktuell
Zeige MMA Monat
Zeige MMA alles
Zeige --A aktuell
Zeige --A Monat
Zeige --A alles
Keine MMA-Anzeige
MMA:
Keine MMA-Graphiken
MMA-Basis: 01.11.2012 - 31.12.2012
Quicknavigation für Darstellung... ?
Tage:      1T, 2T, 3T, 5T -1T -2T -3T -5T +1T +2T +3T +5T
Wochen: 1W, 2W, 3W -1W -2W -3W +1W +2W +3W
Monate: 1M, 3M, 6M -1M -3M -6M +1M +3M +6M
Jahre:    1J, 3J, 5J, 10J -1J -3J -5J -10J +1J +3J +5J +10J
Nutze für die Darstellung ... ?
Originaldaten oder ...
Mittelwerte Minima Maxima auf...
Stundenbasis Tagesbasis Wochenbasis
Monatsbasis Jahresbasis      Datenbasis: Mittelwerte auf Tagesbasis
Darstellen als:
Statistik (Auto) Statistik J:M      Darstellung:
Zur Graphik,    zurück zur Übersicht aller Sensoren.
 
Tabellarische Datenbersicht: ?
 
Sensor: Nr:Datum:Temp:Feuchte:Taupunkt:
Aussen-T/F 1 01-11-2012 00:00:00 7.64965 C 85.8819 % 5.44 C
2 02-11-2012 00:00:00 7.75417 C 81.4132 % 4.78 C
3 03-11-2012 00:00:00 7.38542 C 94.0104 % 6.49 C
4 04-11-2012 00:00:00 7.74028 C 92.3472 % 6.58 C
5 05-11-2012 00:00:00 8.00382 C 84.4444 % 5.55 C
6 06-11-2012 00:00:00 6.03264 C 87.7708 % 4.16 C
7 07-11-2012 00:00:00 8.52535 C 86.8021 % 6.46 C
8 08-11-2012 00:00:00 8.82222 C 80.7188 % 5.7 C
9 09-11-2012 00:00:00 8.19861 C 83.9444 % 5.65 C
10 10-11-2012 00:00:00 8.89201 C 93.0243 % 7.83 C
11 11-11-2012 00:00:00 8.24097 C 92.3333 % 7.07 C
12 12-11-2012 00:00:00 5.70868 C 88.6701 % 3.99 C
13 13-11-2012 00:00:00 3.26076 C 94.2639 % 2.43 C
14 14-11-2012 00:00:00 2.60312 C 94.3438 % 1.79 C
15 15-11-2012 00:00:00 4.53958 C 88.2361 % 2.77 C
16 16-11-2012 00:00:00 3.22222 C 87.5313 % 1.36 C
17 17-11-2012 00:00:00 4.33472 C 93.4931 % 3.38 C
18 18-11-2012 00:00:00 7.54896 C 95.9792 % 6.95 C
19 19-11-2012 00:00:00 7.68403 C 95.0035 % 6.94 C
20 20-11-2012 00:00:00 5.27188 C 93.6215 % 4.33 C
21 21-11-2012 00:00:00 4.38681 C 91.7778 % 3.17 C
22 22-11-2012 00:00:00 5.51111 C 94.8819 % 4.76 C
23 23-11-2012 00:00:00 6.88472 C 93.0660 % 5.84 C
24 24-11-2012 00:00:00 9.16042 C 89.4167 % 7.51 C
25 25-11-2012 00:00:00 10.6066 C 72.8889 % 5.95 C
Sensor: Nr:Datum:Temp:Feuchte:Taupunkt:
Aussen-T/F 26 26-11-2012 00:00:00 6.01493 C 95.3368 % 5.33 C
27 27-11-2012 00:00:00 7.67986 C 89.1875 % 6.02 C
28 28-11-2012 00:00:00 5.5184 C 91.1563 % 4.19 C
29 29-11-2012 00:00:00 4.01319 C 86.8021 % 2.02 C
30 30-11-2012 00:00:00 1.44375 C 93.9375 % 0.58 C
31 01-12-2012 00:00:00 -0.39861 C 93.9271 % -1.25 C
32 02-12-2012 00:00:00 2.39375 C 89.5035 % 0.85 C
33 03-12-2012 00:00:00 2.27222 C 89.5486 % 0.74 C
34 04-12-2012 00:00:00 3.75312 C 89.4653 % 2.18 C
35 05-12-2012 00:00:00 2.86667 C 90.6389 % 1.49 C
36 06-12-2012 00:00:00 0.5625 C 84.7813 % -1.7 C
37 07-12-2012 00:00:00 -1.00382 C 91.2500 % -2.25 C
38 08-12-2012 00:00:00 -4.66111 C 93.4826 % -5.55 C
39 09-12-2012 00:00:00 0.22326 C 90.9479 % -1.08 C
40 10-12-2012 00:00:00 2.70764 C 86.9965 % 0.77 C
41 11-12-2012 00:00:00 -0.72396 C 86.9514 % -2.62 C
42 12-12-2012 00:00:00 -3.40937 C 85.1563 % -5.54 C
43 13-12-2012 00:00:00 -3.53646 C 88.4896 % -5.16 C
44 14-12-2012 00:00:00 2.76076 C 92.6389 % 1.69 C
45 15-12-2012 00:00:00 6.97153 C 92.2500 % 5.8 C
46 16-12-2012 00:00:00 6.60868 C 91.0278 % 5.25 C
47 17-12-2012 00:00:00 6.04792 C 93.6910 % 5.11 C
48 18-12-2012 00:00:00 5.04583 C 93.1146 % 4.03 C
49 19-12-2012 00:00:00 3.47361 C 96.2708 % 2.94 C
50 20-12-2012 00:00:00 1.32396 C 93.7708 % 0.43 C
Sensor: Nr:Datum:Temp:Feuchte:Taupunkt:
Aussen-T/F 51 21-12-2012 00:00:00 3.19236 C 97.7708 % 2.87 C
52 22-12-2012 00:00:00 6.1691 C 95.2361 % 5.47 C
53 23-12-2012 00:00:00 11.85 C 90.7014 % 10.38 C
54 24-12-2012 00:00:00 11.08715 C 83.9306 % 8.48 C
55 25-12-2012 00:00:00 9.61181 C 81.7431 % 6.65 C
56 26-12-2012 00:00:00 8.15278 C 84.2465 % 5.66 C
57 27-12-2012 00:00:00 7.84757 C 87.0868 % 5.84 C
58 28-12-2012 00:00:00 6.19479 C 93.6806 % 5.25 C
59 29-12-2012 00:00:00 8.19931 C 92.4514 % 7.05 C
60 30-12-2012 00:00:00 8.44618 C 76.8021 % 4.62 C
61 31-12-2012 00:00:00 8.92569 C 76.6319 % 5.05 C

Maximal/Minimal-Werte vom 01.11.2012 - 31.12.2012

Sensor Min Max Avg
Temp
(Aussen-T/F)
-8.6 °C
08-12-2012  22:50:00
14.9 °C
25-11-2012  06:20:00
5.17 °C
Feuchte
(Aussen-T/F)
58 %
25-11-2012  07:40:00
98 %
04-11-2012  07:05:00
89.61 %
Taupunkt
(Aussen-T/F)
-5.55 C
08-12-2012  00:00:00
10.38 C
23-12-2012  00:00:00
3.52 C

Die Daten stammen von einer Davis Vantage Pro 2 Wetter-Station und werden unter Linux mit der Software wview2wettercgi und aufbereitet. Alle Angaben erfolgen ohne Gewähr für ihre Vollständigkeit oder Richtigkeit.
Kontakt: Rainer Krienke krienke@uni-koblenz.de . Meine Webseiten an der Uni Koblenz oder privat.
Version: $Revision: 0.78 $